sensor_id;sensor_type;location;lat;lon;timestamp;temperature;humidity
68977;SHT31;56029;52.568;13.588;2024-02-26T00:00:52;0.99;99.99
68977;SHT31;56029;52.568;13.588;2024-02-26T00:03:37;0.91;99.99
68977;SHT31;56029;52.568;13.588;2024-02-26T00:06:03;0.85;99.99
68977;SHT31;56029;52.568;13.588;2024-02-26T00:08:28;0.84;99.99
68977;SHT31;56029;52.568;13.588;2024-02-26T00:10:54;0.74;99.99
68977;SHT31;56029;52.568;13.588;2024-02-26T00:13:19;0.70;99.99
68977;SHT31;56029;52.568;13.588;2024-02-26T00:15:45;0.60;99.99
68977;SHT31;56029;52.568;13.588;2024-02-26T00:18:11;0.52;99.99
68977;SHT31;56029;52.568;13.588;2024-02-26T00:20:36;0.50;99.99
68977;SHT31;56029;52.568;13.588;2024-02-26T00:23:02;0.46;99.99
68977;SHT31;56029;52.568;13.588;2024-02-26T00:25:27;0.44;99.99
68977;SHT31;56029;52.568;13.588;2024-02-26T00:27:53;0.39;99.99
68977;SHT31;56029;52.568;13.588;2024-02-26T00:30:18;0.46;99.99
68977;SHT31;56029;52.568;13.588;2024-02-26T00:32:44;0.42;99.99
68977;SHT31;56029;52.568;13.588;2024-02-26T00:35:09;0.44;99.99
68977;SHT31;56029;52.568;13.588;2024-02-26T00:37:35;0.44;99.99
68977;SHT31;56029;52.568;13.588;2024-02-26T00:40:00;0.43;99.99
68977;SHT31;56029;52.568;13.588;2024-02-26T00:42:26;0.42;99.99
68977;SHT31;56029;52.568;13.588;2024-02-26T00:44:51;0.43;99.99
68977;SHT31;56029;52.568;13.588;2024-02-26T00:47:17;0.36;99.99
68977;SHT31;56029;52.568;13.588;2024-02-26T00:49:42;0.33;99.99
68977;SHT31;56029;52.568;13.588;2024-02-26T00:52:08;0.29;99.99
68977;SHT31;56029;52.568;13.588;2024-02-26T00:54:34;0.27;99.99
68977;SHT31;56029;52.568;13.588;2024-02-26T00:56:59;0.26;99.99
68977;SHT31;56029;52.568;13.588;2024-02-26T00:59:25;0.25;99.99
68977;SHT31;56029;52.568;13.588;2024-02-26T01:01:50;0.19;99.99
68977;SHT31;56029;52.568;13.588;2024-02-26T01:04:16;0.16;99.99
68977;SHT31;56029;52.568;13.588;2024-02-26T01:06:41;0.15;99.99
68977;SHT31;56029;52.568;13.588;2024-02-26T01:09:07;0.15;99.99
68977;SHT31;56029;52.568;13.588;2024-02-26T01:11:32;0.06;99.99
68977;SHT31;56029;52.568;13.588;2024-02-26T01:13:58;0.10;99.99
68977;SHT31;56029;52.568;13.588;2024-02-26T01:16:23;0.12;99.99
68977;SHT31;56029;52.568;13.588;2024-02-26T01:18:49;0.10;99.99
68977;SHT31;56029;52.568;13.588;2024-02-26T01:21:14;0.07;99.99
68977;SHT31;56029;52.568;13.588;2024-02-26T01:23:40;-0.02;99.99
68977;SHT31;56029;52.568;13.588;2024-02-26T01:26:05;-0.18;99.99
68977;SHT31;56029;52.568;13.588;2024-02-26T01:28:31;-0.22;99.99
68977;SHT31;56029;52.568;13.588;2024-02-26T01:30:56;-0.25;99.99
68977;SHT31;56029;52.568;13.588;2024-02-26T01:33:22;-0.25;99.99
68977;SHT31;56029;52.568;13.588;2024-02-26T01:35:48;-0.26;99.99
68977;SHT31;56029;52.568;13.588;2024-02-26T01:38:13;-0.25;99.99
68977;SHT31;56029;52.568;13.588;2024-02-26T01:40:39;-0.25;99.99
68977;SHT31;56029;52.568;13.588;2024-02-26T01:43:04;-0.26;99.99
68977;SHT31;56029;52.568;13.588;2024-02-26T01:45:30;-0.32;99.99
68977;SHT31;56029;52.568;13.588;2024-02-26T01:47:56;-0.35;99.99
68977;SHT31;56029;52.568;13.588;2024-02-26T01:50:22;-0.33;99.99
68977;SHT31;56029;52.568;13.588;2024-02-26T01:52:49;-0.35;99.99
68977;SHT31;56029;52.568;13.588;2024-02-26T01:55:16;-0.37;99.99
68977;SHT31;56029;52.568;13.588;2024-02-26T01:57:44;-0.35;99.99
68977;SHT31;56029;52.568;13.588;2024-02-26T02:00:11;-0.32;99.99
68977;SHT31;56029;52.568;13.588;2024-02-26T02:02:37;-0.29;99.99
68977;SHT31;56029;52.568;13.588;2024-02-26T02:05:03;-0.33;99.99
68977;SHT31;56029;52.568;13.588;2024-02-26T02:07:29;-0.42;99.99
68977;SHT31;56029;52.568;13.588;2024-02-26T02:09:55;-0.45;99.99
68977;SHT31;56029;52.568;13.588;2024-02-26T02:12:21;-0.49;99.99
68977;SHT31;56029;52.568;13.588;2024-02-26T02:14:47;-0.49;99.99
68977;SHT31;56029;52.568;13.588;2024-02-26T02:17:12;-0.46;99.99
68977;SHT31;56029;52.568;13.588;2024-02-26T02:19:38;-0.49;99.99
68977;SHT31;56029;52.568;13.588;2024-02-26T02:22:03;-0.48;99.99
68977;SHT31;56029;52.568;13.588;2024-02-26T02:24:29;-0.52;99.99
68977;SHT31;56029;52.568;13.588;2024-02-26T02:26:55;-0.53;99.99
68977;SHT31;56029;52.568;13.588;2024-02-26T02:29:21;-0.56;99.99
68977;SHT31;56029;52.568;13.588;2024-02-26T02:31:47;-0.57;99.99
68977;SHT31;56029;52.568;13.588;2024-02-26T02:34:12;-0.56;99.99
68977;SHT31;56029;52.568;13.588;2024-02-26T02:36:49;-0.56;99.99
68977;SHT31;56029;52.568;13.588;2024-02-26T02:39:16;-0.57;99.99
68977;SHT31;56029;52.568;13.588;2024-02-26T02:41:42;-0.60;99.99
68977;SHT31;56029;52.568;13.588;2024-02-26T02:44:07;-0.60;99.99
68977;SHT31;56029;52.568;13.588;2024-02-26T02:46:33;-0.64;99.99
68977;SHT31;56029;52.568;13.588;2024-02-26T02:48:58;-0.63;99.99
68977;SHT31;56029;52.568;13.588;2024-02-26T02:51:24;-0.63;99.99
68977;SHT31;56029;52.568;13.588;2024-02-26T02:53:49;-0.63;99.99
68977;SHT31;56029;52.568;13.588;2024-02-26T02:56:15;-0.63;99.99
68977;SHT31;56029;52.568;13.588;2024-02-26T02:58:40;-0.64;99.99
68977;SHT31;56029;52.568;13.588;2024-02-26T03:01:06;-0.66;99.99
68977;SHT31;56029;52.568;13.588;2024-02-26T03:03:31;-0.74;99.99
68977;SHT31;56029;52.568;13.588;2024-02-26T03:05:57;-0.80;99.99
68977;SHT31;56029;52.568;13.588;2024-02-26T03:08:22;-0.83;99.99
68977;SHT31;56029;52.568;13.588;2024-02-26T03:10:48;-0.80;99.99
68977;SHT31;56029;52.568;13.588;2024-02-26T03:13:13;-0.81;99.99
68977;SHT31;56029;52.568;13.588;2024-02-26T03:15:39;-0.74;99.99
68977;SHT31;56029;52.568;13.588;2024-02-26T03:18:04;-0.69;99.99
68977;SHT31;56029;52.568;13.588;2024-02-26T03:20:30;-0.63;99.99
68977;SHT31;56029;52.568;13.588;2024-02-26T03:22:55;-0.59;99.99
68977;SHT31;56029;52.568;13.588;2024-02-26T03:25:21;-0.62;99.99
68977;SHT31;56029;52.568;13.588;2024-02-26T03:27:46;-0.67;99.99
68977;SHT31;56029;52.568;13.588;2024-02-26T03:30:12;-0.74;99.99
68977;SHT31;56029;52.568;13.588;2024-02-26T03:32:37;-0.77;99.99
68977;SHT31;56029;52.568;13.588;2024-02-26T03:35:03;-0.79;99.99
68977;SHT31;56029;52.568;13.588;2024-02-26T03:37:29;-0.83;99.99
68977;SHT31;56029;52.568;13.588;2024-02-26T03:39:55;-0.90;99.99
68977;SHT31;56029;52.568;13.588;2024-02-26T03:42:20;-0.94;99.99
68977;SHT31;56029;52.568;13.588;2024-02-26T03:44:46;-0.91;99.99
68977;SHT31;56029;52.568;13.588;2024-02-26T03:47:11;-0.93;99.99
68977;SHT31;56029;52.568;13.588;2024-02-26T03:49:37;-0.90;99.99
68977;SHT31;56029;52.568;13.588;2024-02-26T03:52:02;-0.93;99.99
68977;SHT31;56029;52.568;13.588;2024-02-26T03:54:28;-0.94;99.99
68977;SHT31;56029;52.568;13.588;2024-02-26T03:56:53;-0.95;99.99
68977;SHT31;56029;52.568;13.588;2024-02-26T03:59:19;-0.94;99.99
68977;SHT31;56029;52.568;13.588;2024-02-26T04:01:47;-0.90;99.99
68977;SHT31;56029;52.568;13.588;2024-02-26T04:04:13;-0.88;99.99
68977;SHT31;56029;52.568;13.588;2024-02-26T04:06:38;-0.87;99.99
68977;SHT31;56029;52.568;13.588;2024-02-26T04:09:04;-0.87;99.99
68977;SHT31;56029;52.568;13.588;2024-02-26T04:11:29;-0.87;99.99
68977;SHT31;56029;52.568;13.588;2024-02-26T04:13:55;-0.84;99.99
68977;SHT31;56029;52.568;13.588;2024-02-26T04:16:20;-0.80;99.99
68977;SHT31;56029;52.568;13.588;2024-02-26T04:18:46;-0.80;99.99
68977;SHT31;56029;52.568;13.588;2024-02-26T04:21:11;-0.79;99.99
68977;SHT31;56029;52.568;13.588;2024-02-26T04:23:37;-0.81;99.99
68977;SHT31;56029;52.568;13.588;2024-02-26T04:26:03;-0.88;99.99
68977;SHT31;56029;52.568;13.588;2024-02-26T04:28:28;-0.95;99.99
68977;SHT31;56029;52.568;13.588;2024-02-26T04:30:54;-0.94;99.99
68977;SHT31;56029;52.568;13.588;2024-02-26T04:33:20;-0.94;99.99
68977;SHT31;56029;52.568;13.588;2024-02-26T04:35:45;-0.90;99.99
68977;SHT31;56029;52.568;13.588;2024-02-26T04:38:11;-0.90;99.99
68977;SHT31;56029;52.568;13.588;2024-02-26T04:40:36;-0.88;99.99
68977;SHT31;56029;52.568;13.588;2024-02-26T04:43:02;-0.84;99.99
68977;SHT31;56029;52.568;13.588;2024-02-26T04:45:27;-0.83;99.99
68977;SHT31;56029;52.568;13.588;2024-02-26T04:47:54;-0.81;99.99
68977;SHT31;56029;52.568;13.588;2024-02-26T04:50:19;-0.79;99.99
68977;SHT31;56029;52.568;13.588;2024-02-26T04:52:45;-0.77;99.99
68977;SHT31;56029;52.568;13.588;2024-02-26T04:55:10;-0.79;99.99
68977;SHT31;56029;52.568;13.588;2024-02-26T04:57:36;-0.77;99.99
68977;SHT31;56029;52.568;13.588;2024-02-26T05:00:01;-0.76;99.99
68977;SHT31;56029;52.568;13.588;2024-02-26T05:02:27;-0.72;99.99
68977;SHT31;56029;52.568;13.588;2024-02-26T05:04:52;-0.67;99.99
68977;SHT31;56029;52.568;13.588;2024-02-26T05:07:18;-0.64;99.99
68977;SHT31;56029;52.568;13.588;2024-02-26T05:09:44;-0.63;99.99
68977;SHT31;56029;52.568;13.588;2024-02-26T05:12:10;-0.64;99.99
68977;SHT31;56029;52.568;13.588;2024-02-26T05:14:36;-0.62;99.99
68977;SHT31;56029;52.568;13.588;2024-02-26T05:17:01;-0.66;99.99
68977;SHT31;56029;52.568;13.588;2024-02-26T05:19:27;-0.66;99.99
68977;SHT31;56029;52.568;13.588;2024-02-26T05:21:52;-0.76;99.99
68977;SHT31;56029;52.568;13.588;2024-02-26T05:24:18;-0.80;99.99
68977;SHT31;56029;52.568;13.588;2024-02-26T05:26:45;-0.81;99.99
68977;SHT31;56029;52.568;13.588;2024-02-26T05:29:10;-0.83;99.99
68977;SHT31;56029;52.568;13.588;2024-02-26T05:31:36;-0.85;99.99
68977;SHT31;56029;52.568;13.588;2024-02-26T05:34:01;-0.87;99.99
68977;SHT31;56029;52.568;13.588;2024-02-26T05:36:27;-0.85;99.99
68977;SHT31;56029;52.568;13.588;2024-02-26T05:38:52;-0.85;99.99
68977;SHT31;56029;52.568;13.588;2024-02-26T05:41:18;-0.85;99.99
68977;SHT31;56029;52.568;13.588;2024-02-26T05:43:43;-0.85;99.99
68977;SHT31;56029;52.568;13.588;2024-02-26T05:46:09;-0.85;99.99
68977;SHT31;56029;52.568;13.588;2024-02-26T05:48:34;-0.88;99.99
68977;SHT31;56029;52.568;13.588;2024-02-26T05:51:00;-0.90;99.99
68977;SHT31;56029;52.568;13.588;2024-02-26T05:53:25;-0.87;99.99
68977;SHT31;56029;52.568;13.588;2024-02-26T05:55:51;-0.83;99.99
68977;SHT31;56029;52.568;13.588;2024-02-26T05:58:17;-0.79;99.99
68977;SHT31;56029;52.568;13.588;2024-02-26T06:00:42;-0.73;99.99
68977;SHT31;56029;52.568;13.588;2024-02-26T06:03:08;-0.70;99.99
68977;SHT31;56029;52.568;13.588;2024-02-26T06:05:33;-0.63;99.99
68977;SHT31;56029;52.568;13.588;2024-02-26T06:07:59;-0.59;99.99
68977;SHT31;56029;52.568;13.588;2024-02-26T06:10:24;-0.54;99.99
68977;SHT31;56029;52.568;13.588;2024-02-26T06:12:50;-0.52;99.99
68977;SHT31;56029;52.568;13.588;2024-02-26T06:15:15;-0.50;99.99
68977;SHT31;56029;52.568;13.588;2024-02-26T06:17:41;-0.46;99.99
68977;SHT31;56029;52.568;13.588;2024-02-26T06:20:07;-0.45;99.99
68977;SHT31;56029;52.568;13.588;2024-02-26T06:22:32;-0.48;99.99
68977;SHT31;56029;52.568;13.588;2024-02-26T06:24:58;-0.46;99.99
68977;SHT31;56029;52.568;13.588;2024-02-26T06:27:23;-0.42;99.99
68977;SHT31;56029;52.568;13.588;2024-02-26T06:29:49;-0.36;99.99
68977;SHT31;56029;52.568;13.588;2024-02-26T06:32:15;-0.30;99.99
68977;SHT31;56029;52.568;13.588;2024-02-26T06:34:41;-0.28;99.99
68977;SHT31;56029;52.568;13.588;2024-02-26T06:37:06;-0.23;99.99
68977;SHT31;56029;52.568;13.588;2024-02-26T06:39:32;-0.14;99.99
68977;SHT31;56029;52.568;13.588;2024-02-26T06:41:57;-0.08;99.99
68977;SHT31;56029;52.568;13.588;2024-02-26T06:44:23;-0.04;99.99
68977;SHT31;56029;52.568;13.588;2024-02-26T06:46:48;0.02;99.99
68977;SHT31;56029;52.568;13.588;2024-02-26T06:49:14;0.09;99.99
68977;SHT31;56029;52.568;13.588;2024-02-26T06:51:39;0.20;99.99
68977;SHT31;56029;52.568;13.588;2024-02-26T06:54:05;0.34;99.99
68977;SHT31;56029;52.568;13.588;2024-02-26T06:56:30;0.43;99.99
68977;SHT31;56029;52.568;13.588;2024-02-26T06:58:56;0.53;99.99
68977;SHT31;56029;52.568;13.588;2024-02-26T07:01:21;0.74;99.99
68977;SHT31;56029;52.568;13.588;2024-02-26T07:03:47;0.91;99.99
68977;SHT31;56029;52.568;13.588;2024-02-26T07:06:12;1.18;99.99
68977;SHT31;56029;52.568;13.588;2024-02-26T07:08:38;1.25;99.99
68977;SHT31;56029;52.568;13.588;2024-02-26T07:11:07;1.29;99.99
68977;SHT31;56029;52.568;13.588;2024-02-26T07:13:33;1.39;99.99
68977;SHT31;56029;52.568;13.588;2024-02-26T07:15:58;1.50;99.99
68977;SHT31;56029;52.568;13.588;2024-02-26T07:18:24;1.62;99.99
68977;SHT31;56029;52.568;13.588;2024-02-26T07:20:49;1.66;99.99
68977;SHT31;56029;52.568;13.588;2024-02-26T07:23:15;1.77;99.99
68977;SHT31;56029;52.568;13.588;2024-02-26T07:25:40;1.91;99.99
68977;SHT31;56029;52.568;13.588;2024-02-26T07:28:06;1.94;99.99
68977;SHT31;56029;52.568;13.588;2024-02-26T07:30:31;1.97;99.99
68977;SHT31;56029;52.568;13.588;2024-02-26T07:32:57;2.07;99.99
68977;SHT31;56029;52.568;13.588;2024-02-26T07:35:22;2.15;99.99
68977;SHT31;56029;52.568;13.588;2024-02-26T07:37:48;2.28;99.99
68977;SHT31;56029;52.568;13.588;2024-02-26T07:40:14;2.39;99.99
68977;SHT31;56029;52.568;13.588;2024-02-26T07:42:40;2.45;99.99
68977;SHT31;56029;52.568;13.588;2024-02-26T07:45:06;2.53;99.99
68977;SHT31;56029;52.568;13.588;2024-02-26T07:47:32;2.60;99.99
68977;SHT31;56029;52.568;13.588;2024-02-26T07:49:57;2.63;99.99
68977;SHT31;56029;52.568;13.588;2024-02-26T07:52:23;2.72;99.99
68977;SHT31;56029;52.568;13.588;2024-02-26T07:54:48;2.80;99.99
68977;SHT31;56029;52.568;13.588;2024-02-26T07:57:14;2.86;99.99
68977;SHT31;56029;52.568;13.588;2024-02-26T07:59:40;2.94;99.99
68977;SHT31;56029;52.568;13.588;2024-02-26T08:02:06;3.08;99.99
68977;SHT31;56029;52.568;13.588;2024-02-26T08:04:31;3.18;99.99
68977;SHT31;56029;52.568;13.588;2024-02-26T08:06:57;3.29;99.99
68977;SHT31;56029;52.568;13.588;2024-02-26T08:09:22;3.39;99.99
68977;SHT31;56029;52.568;13.588;2024-02-26T08:11:48;3.52;99.99
68977;SHT31;56029;52.568;13.588;2024-02-26T08:14:13;3.60;99.99
68977;SHT31;56029;52.568;13.588;2024-02-26T08:16:39;3.63;99.99
68977;SHT31;56029;52.568;13.588;2024-02-26T08:19:04;3.79;99.99
68977;SHT31;56029;52.568;13.588;2024-02-26T08:21:30;3.85;99.99
68977;SHT31;56029;52.568;13.588;2024-02-26T08:23:55;3.96;99.99
68977;SHT31;56029;52.568;13.588;2024-02-26T08:26:21;4.04;99.99
68977;SHT31;56029;52.568;13.588;2024-02-26T08:28:46;4.07;99.99
68977;SHT31;56029;52.568;13.588;2024-02-26T08:31:12;4.17;99.99
68977;SHT31;56029;52.568;13.588;2024-02-26T08:33:37;4.27;99.99
68977;SHT31;56029;52.568;13.588;2024-02-26T08:36:06;4.33;99.99
68977;SHT31;56029;52.568;13.588;2024-02-26T08:38:31;4.47;99.99
68977;SHT31;56029;52.568;13.588;2024-02-26T08:40:57;4.57;99.99
68977;SHT31;56029;52.568;13.588;2024-02-26T08:43:22;4.69;99.99
68977;SHT31;56029;52.568;13.588;2024-02-26T08:45:48;4.76;99.79
68977;SHT31;56029;52.568;13.588;2024-02-26T08:48:13;4.89;99.41
68977;SHT31;56029;52.568;13.588;2024-02-26T08:50:39;5.09;98.87
68977;SHT31;56029;52.568;13.588;2024-02-26T08:53:04;5.27;98.36
68977;SHT31;56029;52.568;13.588;2024-02-26T08:55:30;5.37;98.19
68977;SHT31;56029;52.568;13.588;2024-02-26T08:57:55;5.50;97.49
68977;SHT31;56029;52.568;13.588;2024-02-26T09:00:21;5.57;97.44
68977;SHT31;56029;52.568;13.588;2024-02-26T09:02:47;5.62;96.49
68977;SHT31;56029;52.568;13.588;2024-02-26T09:05:13;5.78;96.75
68977;SHT31;56029;52.568;13.588;2024-02-26T09:07:38;5.86;96.30
68977;SHT31;56029;52.568;13.588;2024-02-26T09:10:05;6.05;96.31
68977;SHT31;56029;52.568;13.588;2024-02-26T09:12:31;6.16;96.14
68977;SHT31;56029;52.568;13.588;2024-02-26T09:14:56;6.23;95.33
68977;SHT31;56029;52.568;13.588;2024-02-26T09:17:22;6.37;95.04
68977;SHT31;56029;52.568;13.588;2024-02-26T09:19:47;6.53;94.35
68977;SHT31;56029;52.568;13.588;2024-02-26T09:22:13;6.65;94.22
68977;SHT31;56029;52.568;13.588;2024-02-26T09:24:39;6.75;94.22
68977;SHT31;56029;52.568;13.588;2024-02-26T09:27:04;6.81;93.43
68977;SHT31;56029;52.568;13.588;2024-02-26T09:29:30;6.88;93.37
68977;SHT31;56029;52.568;13.588;2024-02-26T09:31:55;6.92;92.97
68977;SHT31;56029;52.568;13.588;2024-02-26T09:34:21;7.03;92.81
68977;SHT31;56029;52.568;13.588;2024-02-26T09:36:46;7.05;93.24
68977;SHT31;56029;52.568;13.588;2024-02-26T09:39:12;7.09;92.30
68977;SHT31;56029;52.568;13.588;2024-02-26T09:41:37;7.15;91.80
68977;SHT31;56029;52.568;13.588;2024-02-26T09:44:04;7.16;91.97
68977;SHT31;56029;52.568;13.588;2024-02-26T09:46:30;7.13;91.71
68977;SHT31;56029;52.568;13.588;2024-02-26T09:48:56;7.20;90.80
68977;SHT31;56029;52.568;13.588;2024-02-26T09:51:23;7.26;90.94
68977;SHT31;56029;52.568;13.588;2024-02-26T09:53:51;7.36;90.79
68977;SHT31;56029;52.568;13.588;2024-02-26T09:56:17;7.44;89.73
68977;SHT31;56029;52.568;13.588;2024-02-26T09:58:43;7.52;89.64
68977;SHT31;56029;52.568;13.588;2024-02-26T10:01:13;7.59;90.01
68977;SHT31;56029;52.568;13.588;2024-02-26T10:03:42;7.70;90.16
68977;SHT31;56029;52.568;13.588;2024-02-26T10:06:08;7.73;87.70
68977;SHT31;56029;52.568;13.588;2024-02-26T10:08:35;7.91;88.25
68977;SHT31;56029;52.568;13.588;2024-02-26T10:11:00;7.92;87.63
68977;SHT31;56029;52.568;13.588;2024-02-26T10:13:26;8.03;87.22
68977;SHT31;56029;52.568;13.588;2024-02-26T10:15:52;8.18;87.58
68977;SHT31;56029;52.568;13.588;2024-02-26T10:18:18;8.25;87.65
68977;SHT31;56029;52.568;13.588;2024-02-26T10:21:01;8.33;87.40
68977;SHT31;56029;52.568;13.588;2024-02-26T10:23:27;8.35;86.54
68977;SHT31;56029;52.568;13.588;2024-02-26T10:25:56;8.50;85.90
68977;SHT31;56029;52.568;13.588;2024-02-26T10:28:22;8.57;86.31
68977;SHT31;56029;52.568;13.588;2024-02-26T10:30:48;8.70;86.10
68977;SHT31;56029;52.568;13.588;2024-02-26T10:33:14;8.76;85.81
68977;SHT31;56029;52.568;13.588;2024-02-26T10:35:44;8.87;86.75
68977;SHT31;56029;52.568;13.588;2024-02-26T10:38:10;8.98;87.15
68977;SHT31;56029;52.568;13.588;2024-02-26T10:40:36;9.04;87.57
68977;SHT31;56029;52.568;13.588;2024-02-26T10:43:02;9.00;86.97
68977;SHT31;56029;52.568;13.588;2024-02-26T10:45:27;9.14;86.25
68977;SHT31;56029;52.568;13.588;2024-02-26T10:47:53;9.24;84.70
68977;SHT31;56029;52.568;13.588;2024-02-26T10:50:19;9.32;83.83
68977;SHT31;56029;52.568;13.588;2024-02-26T10:52:45;9.45;83.55
68977;SHT31;56029;52.568;13.588;2024-02-26T10:55:17;9.46;82.33
68977;SHT31;56029;52.568;13.588;2024-02-26T10:57:44;9.55;84.78
68977;SHT31;56029;52.568;13.588;2024-02-26T11:00:10;9.42;86.19
68977;SHT31;56029;52.568;13.588;2024-02-26T11:02:40;9.45;86.15
68977;SHT31;56029;52.568;13.588;2024-02-26T11:05:06;9.36;86.36
68977;SHT31;56029;52.568;13.588;2024-02-26T11:07:32;9.43;85.97
68977;SHT31;56029;52.568;13.588;2024-02-26T11:10:00;9.35;85.62
68977;SHT31;56029;52.568;13.588;2024-02-26T11:12:27;9.40;85.67
68977;SHT31;56029;52.568;13.588;2024-02-26T11:14:53;9.48;86.09
68977;SHT31;56029;52.568;13.588;2024-02-26T11:17:19;9.49;85.60
68977;SHT31;56029;52.568;13.588;2024-02-26T11:19:46;9.55;85.48
68977;SHT31;56029;52.568;13.588;2024-02-26T11:22:11;9.69;84.93
68977;SHT31;56029;52.568;13.588;2024-02-26T11:24:37;9.82;85.08
68977;SHT31;56029;52.568;13.588;2024-02-26T11:27:04;9.90;85.16
68977;SHT31;56029;52.568;13.588;2024-02-26T11:29:34;9.90;84.76
68977;SHT31;56029;52.568;13.588;2024-02-26T11:32:03;10.01;84.18
68977;SHT31;56029;52.568;13.588;2024-02-26T11:34:28;10.10;84.80
68977;SHT31;56029;52.568;13.588;2024-02-26T11:36:55;9.94;83.67
68977;SHT31;56029;52.568;13.588;2024-02-26T11:39:21;10.08;84.27
68977;SHT31;56029;52.568;13.588;2024-02-26T11:41:47;10.01;83.47
68977;SHT31;56029;52.568;13.588;2024-02-26T11:44:13;10.10;83.78
68977;SHT31;56029;52.568;13.588;2024-02-26T11:46:40;10.14;83.88
68977;SHT31;56029;52.568;13.588;2024-02-26T11:51:54;10.27;84.22
68977;SHT31;56029;52.568;13.588;2024-02-26T11:54:46;10.25;84.17
68977;SHT31;56029;52.568;13.588;2024-02-26T11:57:27;10.21;83.96
68977;SHT31;56029;52.568;13.588;2024-02-26T12:00:10;10.27;83.45
68977;SHT31;56029;52.568;13.588;2024-02-26T12:07:45;10.55;82.31
68977;SHT31;56029;52.568;13.588;2024-02-26T12:12:46;10.55;80.98
68977;SHT31;56029;52.568;13.588;2024-02-26T12:15:14;10.59;81.43
68977;SHT31;56029;52.568;13.588;2024-02-26T12:17:41;10.77;81.11
68977;SHT31;56029;52.568;13.588;2024-02-26T12:20:10;10.72;79.80
68977;SHT31;56029;52.568;13.588;2024-02-26T12:22:39;10.73;80.09
68977;SHT31;56029;52.568;13.588;2024-02-26T12:25:05;10.89;80.39
68977;SHT31;56029;52.568;13.588;2024-02-26T12:27:31;10.91;79.68
68977;SHT31;56029;52.568;13.588;2024-02-26T12:29:56;10.92;79.56
68977;SHT31;56029;52.568;13.588;2024-02-26T12:32:23;10.92;79.81
68977;SHT31;56029;52.568;13.588;2024-02-26T12:34:48;10.96;78.43
68977;SHT31;56029;52.568;13.588;2024-02-26T12:37:14;10.86;78.32
68977;SHT31;56029;52.568;13.588;2024-02-26T12:39:39;10.96;78.90
68977;SHT31;56029;52.568;13.588;2024-02-26T12:42:05;11.14;79.21
68977;SHT31;56029;52.568;13.588;2024-02-26T12:44:31;11.12;78.69
68977;SHT31;56029;52.568;13.588;2024-02-26T12:47:00;11.20;78.35
68977;SHT31;56029;52.568;13.588;2024-02-26T12:49:26;11.19;78.33
68977;SHT31;56029;52.568;13.588;2024-02-26T12:51:52;11.13;78.34
68977;SHT31;56029;52.568;13.588;2024-02-26T12:54:17;11.10;78.43
68977;SHT31;56029;52.568;13.588;2024-02-26T12:56:43;11.22;77.05
68977;SHT31;56029;52.568;13.588;2024-02-26T12:59:08;11.07;76.62
68977;SHT31;56029;52.568;13.588;2024-02-26T13:01:34;11.16;77.41
68977;SHT31;56029;52.568;13.588;2024-02-26T13:04:00;11.07;76.36
68977;SHT31;56029;52.568;13.588;2024-02-26T13:06:26;11.09;76.06
68977;SHT31;56029;52.568;13.588;2024-02-26T13:08:56;11.10;76.44
68977;SHT31;56029;52.568;13.588;2024-02-26T13:11:22;11.07;75.72
68977;SHT31;56029;52.568;13.588;2024-02-26T13:13:48;11.03;73.73
68977;SHT31;56029;52.568;13.588;2024-02-26T13:16:14;11.06;74.10
68977;SHT31;56029;52.568;13.588;2024-02-26T13:18:40;10.96;74.64
68977;SHT31;56029;52.568;13.588;2024-02-26T13:21:10;11.00;74.44
68977;SHT31;56029;52.568;13.588;2024-02-26T13:23:36;10.97;74.08
68977;SHT31;56029;52.568;13.588;2024-02-26T13:26:02;10.96;73.98
68977;SHT31;56029;52.568;13.588;2024-02-26T13:28:28;10.97;73.40
68977;SHT31;56029;52.568;13.588;2024-02-26T13:30:57;10.88;73.71
68977;SHT31;56029;52.568;13.588;2024-02-26T13:33:24;10.93;74.06
68977;SHT31;56029;52.568;13.588;2024-02-26T13:35:50;10.82;73.92
68977;SHT31;56029;52.568;13.588;2024-02-26T13:38:16;10.76;73.75
68977;SHT31;56029;52.568;13.588;2024-02-26T13:40:42;10.75;74.22
68977;SHT31;56029;52.568;13.588;2024-02-26T13:43:07;10.69;74.59
68977;SHT31;56029;52.568;13.588;2024-02-26T13:45:37;10.68;75.41
68977;SHT31;56029;52.568;13.588;2024-02-26T13:48:05;10.68;75.45
68977;SHT31;56029;52.568;13.588;2024-02-26T13:50:31;10.65;75.67
68977;SHT31;56029;52.568;13.588;2024-02-26T13:52:57;10.66;75.94
68977;SHT31;56029;52.568;13.588;2024-02-26T13:55:27;10.56;75.73
68977;SHT31;56029;52.568;13.588;2024-02-26T13:57:52;10.56;76.25
68977;SHT31;56029;52.568;13.588;2024-02-26T14:00:18;10.52;76.78
68977;SHT31;56029;52.568;13.588;2024-02-26T14:02:43;10.54;76.33
68977;SHT31;56029;52.568;13.588;2024-02-26T14:05:09;10.55;76.44
68977;SHT31;56029;52.568;13.588;2024-02-26T14:07:34;10.51;76.21
68977;SHT31;56029;52.568;13.588;2024-02-26T14:10:00;10.51;75.94
68977;SHT31;56029;52.568;13.588;2024-02-26T14:12:26;10.46;76.45
68977;SHT31;56029;52.568;13.588;2024-02-26T14:14:51;10.49;76.65
68977;SHT31;56029;52.568;13.588;2024-02-26T14:17:17;10.49;76.75
68977;SHT31;56029;52.568;13.588;2024-02-26T14:19:42;10.48;75.96
68977;SHT31;56029;52.568;13.588;2024-02-26T14:22:08;10.48;76.27
68977;SHT31;56029;52.568;13.588;2024-02-26T14:24:33;10.41;76.55
68977;SHT31;56029;52.568;13.588;2024-02-26T14:26:59;10.42;76.96
68977;SHT31;56029;52.568;13.588;2024-02-26T14:29:24;10.41;76.67
68977;SHT31;56029;52.568;13.588;2024-02-26T14:31:50;10.44;76.19
68977;SHT31;56029;52.568;13.588;2024-02-26T14:34:15;10.42;76.49
68977;SHT31;56029;52.568;13.588;2024-02-26T14:36:41;10.41;76.62
68977;SHT31;56029;52.568;13.588;2024-02-26T14:39:06;10.38;76.94
68977;SHT31;56029;52.568;13.588;2024-02-26T14:41:32;10.35;77.85
68977;SHT31;56029;52.568;13.588;2024-02-26T14:43:58;10.28;77.03
68977;SHT31;56029;52.568;13.588;2024-02-26T14:46:23;10.31;77.08
68977;SHT31;56029;52.568;13.588;2024-02-26T14:48:49;10.35;76.82
68977;SHT31;56029;52.568;13.588;2024-02-26T14:51:14;10.22;77.59
68977;SHT31;56029;52.568;13.588;2024-02-26T14:53:40;10.18;77.79
68977;SHT31;56029;52.568;13.588;2024-02-26T14:56:05;10.21;77.26
68977;SHT31;56029;52.568;13.588;2024-02-26T14:58:31;10.18;77.38
68977;SHT31;56029;52.568;13.588;2024-02-26T15:00:56;10.10;78.03
68977;SHT31;56029;52.568;13.588;2024-02-26T15:03:22;10.06;78.25
68977;SHT31;56029;52.568;13.588;2024-02-26T15:05:47;10.04;78.15
68977;SHT31;56029;52.568;13.588;2024-02-26T15:08:13;10.04;78.28
68977;SHT31;56029;52.568;13.588;2024-02-26T15:10:38;9.98;78.82
68977;SHT31;56029;52.568;13.588;2024-02-26T15:13:04;9.90;79.22
68977;SHT31;56029;52.568;13.588;2024-02-26T15:15:29;9.93;79.01
68977;SHT31;56029;52.568;13.588;2024-02-26T15:17:55;9.85;79.12
68977;SHT31;56029;52.568;13.588;2024-02-26T15:20:21;9.85;79.09
68977;SHT31;56029;52.568;13.588;2024-02-26T15:22:47;9.80;79.11
68977;SHT31;56029;52.568;13.588;2024-02-26T15:25:12;9.75;79.75